A- A+ FrançaisEnglishEspañol中国

Services sur Internet Soldes sur Internet Des idées de cadeaux Météo Météo aéro

La météo à : Autours de vous Tarbes-Lourdes-PyrénéesLessay Paris-Orly Creil-Senlis

La météo aéronautique pour les pilotes, la préparation du vol avec les METAR (METeorological Aerodrome Report, message d'observation des conditions météorologiques pour l'aviation) et Les TAF (Terminal Aerodrome Forecast : message de prévision à court terme des conditions météorologiques pour l'aviation). Et les autres ressources comme les VAC (Visual Approch Chart) et les NOTAM (Notice To Airman) pour préprer les vols.

Aéroport Prince Albert (Canada) / OACI CYPA/ IATA YPA

L'altitude de l'aéroport Prince Albert est de 428 m = 1404 ft. Il est situé à proximité de Prince Albert (Canada). La météo générale à 5 jours est disponible pour Birch Hills situé à 30.8 km.

METAR de l'aéroport Prince Albert - CYPA

CYPA 071200Z VRB02KT 10SM BKN100 OVC190 M13/M14 A2969 RMK AC6AC2 SLP093

Décodage du METAR de l'aéroport Prince Albert (CA)

METAR émis par CYPA le samedi 7 décembre 2019 à 12:00 heure TU, il y a 24 minutes.

La visibilité est de 16.1 km = 10 sm.

La température est de -13°C = 9 °F et le point rosée est de -14°C = 7 °F . Ce qui correspond à 92% d'humidité relative.

Le QNH est de 1005 hPa = 29.68 inHg

Vent de 2 kt = 4 km/h, orienté à °.

Nuages : Couverture nuageuse fragmentée à 10000 ft = 3050 mètres. Couverture nuageuse soudée à 19000 ft = 5790 mètres.

RMK AC6AC2 SLP093

TAF de l'aéroport Prince Albert - CYPA

CYPA 070909Z 0709/0719 VRB03KT P6SM FEW002 BKN080 TEMPO 0709/0716 2SM BR PROB30 0709/0715 1/2SM FZFG VV002 FM071600 36008KT P6SM SCT010 BKN080 RMK NXT FCST BY 071300Z

CYPA 070909Z 0709/0719 VRB03KT P6SM quelques nuages à 002 couverture nuageuse fragmentée à 080 temporairement 0709/0716 2SM brume probabilité de 30% d'avoir 0709/0715 1/2SM FZFG VV002 FM071600 36008KT P6SM nuages épars à 010 couverture nuageuse fragmentée à 080 remarques NXT trombe ST BY 071300Z

Aéroport à proximité de Prince Albert

Météo générale à 5 jours à Birch Hills (30.8 km)Aéroport Nipawin (111 km)Aéroport Saskatoon (135 km)Aéroport North Battleford (179 km)Aéroport Wynyard (186 km)Aéroport Meadow Lake (213 km)Aéroport La Ronge (217 km)

Vue aérienne de l'aéroport Prince Albert

NOTAM de l'aéroport Prince Albert

Les NOTAM sont fournis sans aucune garantie de leur actualité. Le pilote est le seul responsable de la vérification de sa validité avant de l'utiliser opérationnellement pour préparer un vol ou l'utiliser lors de sa navigation.

Pas de NOTAM

Sources des données